createdAt,value
2022-10-28T00:01:57.754Z,1003.18
2022-10-28T00:06:57.671Z,1003.11
2022-10-28T00:11:57.744Z,1003.01
2022-10-28T00:16:58.581Z,1002.97
2022-10-28T00:21:57.600Z,1002.92
2022-10-28T00:26:57.542Z,1002.90
2022-10-28T00:31:57.471Z,1002.89
2022-10-28T00:36:57.421Z,1002.83
2022-10-28T00:41:57.294Z,1002.77
2022-10-28T00:46:57.199Z,1002.78
2022-10-28T00:51:57.161Z,1002.80
2022-10-28T00:56:57.182Z,1002.70
2022-10-28T01:01:57.228Z,1002.65
2022-10-28T01:06:57.064Z,1002.59
2022-10-28T01:11:58.021Z,1002.57
2022-10-28T01:16:56.955Z,1002.59
2022-10-28T01:21:56.885Z,1002.56
2022-10-28T01:26:56.752Z,1002.67
2022-10-28T01:31:56.722Z,1002.86
2022-10-28T01:36:56.671Z,1002.87
2022-10-28T01:41:56.626Z,1002.74
2022-10-28T01:46:56.572Z,1002.67
2022-10-28T01:51:56.555Z,1002.60
2022-10-28T01:56:56.442Z,1002.48
2022-10-28T02:01:56.645Z,1002.46
2022-10-28T02:06:56.447Z,1002.43
2022-10-28T02:11:56.286Z,1002.40
2022-10-28T02:16:56.220Z,1002.44
2022-10-28T02:21:56.162Z,1002.35
2022-10-28T02:26:56.113Z,1002.49
2022-10-28T02:31:56.135Z,1002.45
2022-10-28T02:36:56.081Z,1002.41
2022-10-28T02:41:56.026Z,1002.34
2022-10-28T02:46:57.917Z,1002.30
2022-10-28T02:51:55.833Z,1002.29
2022-10-28T02:56:55.798Z,1002.23
2022-10-28T03:01:55.816Z,1002.16
2022-10-28T03:06:55.677Z,1002.09
2022-10-28T03:11:55.613Z,1002.06
2022-10-28T03:16:55.594Z,1002.13
2022-10-28T03:21:55.547Z,1002.07
2022-10-28T03:26:55.484Z,1002.07
2022-10-28T03:31:55.417Z,1002.10
2022-10-28T03:36:55.368Z,1002.04
2022-10-28T03:41:55.402Z,1001.99
2022-10-28T03:46:55.225Z,1001.89
2022-10-28T03:51:55.178Z,1001.80
2022-10-28T03:56:55.096Z,1001.87
2022-10-28T04:01:55.240Z,1001.73
2022-10-28T04:06:55.075Z,1001.77
2022-10-28T04:11:55.123Z,1001.80
2022-10-28T04:16:54.980Z,1001.74
2022-10-28T04:21:54.920Z,1001.72
2022-10-28T04:26:54.849Z,1001.77
2022-10-28T04:31:54.795Z,1001.80
2022-10-28T04:36:54.679Z,1001.79
2022-10-28T04:41:54.606Z,1001.76
2022-10-28T04:46:54.557Z,1001.81
2022-10-28T04:51:54.508Z,1001.93
2022-10-28T04:56:54.474Z,1001.84
2022-10-28T05:01:54.481Z,1001.76
2022-10-28T05:06:54.371Z,1001.80
2022-10-28T05:11:54.358Z,1001.83
2022-10-28T05:16:54.241Z,1001.93
2022-10-28T05:21:54.182Z,1001.81
2022-10-28T05:26:54.120Z,1001.85
2022-10-28T05:34:32.465Z,1001.80
2022-10-28T05:39:32.296Z,1001.91
2022-10-28T05:44:32.361Z,1001.86
2022-10-28T05:49:32.276Z,1001.89
2022-10-28T05:54:41.257Z,1001.87
2022-10-28T05:59:35.961Z,1001.90
2022-10-28T06:04:32.114Z,1001.92
2022-10-28T06:09:32.691Z,1001.90
2022-10-28T06:18:38.340Z,1001.97
2022-10-28T06:26:21.352Z,1001.94
2022-10-28T06:31:22.113Z,1001.96
2022-10-28T06:36:20.760Z,1001.90
2022-10-28T06:41:23.459Z,1002.02
2022-10-28T06:46:23.279Z,1002.01
2022-10-28T06:51:51.275Z,1002.14
2022-10-28T06:56:23.017Z,1002.25
2022-10-28T07:01:21.947Z,1002.24
2022-10-28T07:06:22.169Z,1002.23
2022-10-28T07:11:21.849Z,1002.36
2022-10-28T07:16:22.864Z,1002.28
2022-10-28T07:21:34.492Z,1002.29
2022-10-28T07:26:22.636Z,1002.29
2022-10-28T07:31:21.749Z,1002.44
2022-10-28T07:36:30.399Z,1002.39
2022-10-28T07:41:21.406Z,1002.35
2022-10-28T07:46:21.378Z,1002.36
2022-10-28T07:51:21.322Z,1002.31
2022-10-28T07:56:21.299Z,1002.33
2022-10-28T08:01:21.333Z,1002.27
2022-10-28T08:06:21.158Z,1002.27
2022-10-28T08:11:21.092Z,1002.28
2022-10-28T08:16:21.140Z,1002.37
2022-10-28T08:21:20.946Z,1002.42
2022-10-28T08:26:20.899Z,1002.39
2022-10-28T08:31:20.876Z,1002.34
2022-10-28T08:36:20.859Z,1002.29
2022-10-28T08:41:20.734Z,1002.34
2022-10-28T08:46:20.688Z,1002.18
2022-10-28T08:51:20.658Z,1002.16
2022-10-28T08:56:20.787Z,1002.10
2022-10-28T09:01:20.834Z,1002.06
2022-10-28T09:06:20.475Z,1002.05
2022-10-28T09:11:24.756Z,1002.08
2022-10-28T09:16:21.482Z,1002.05
2022-10-28T09:21:20.374Z,1002.07
2022-10-28T09:26:20.261Z,1001.94
2022-10-28T09:31:20.312Z,1001.95
2022-10-28T09:36:20.209Z,1001.92
2022-10-28T09:41:20.173Z,1001.91
2022-10-28T09:46:20.155Z,1001.83
2022-10-28T09:51:20.049Z,1001.81
2022-10-28T09:56:20.040Z,1001.84
2022-10-28T10:01:20.021Z,1001.87
2022-10-28T10:06:19.869Z,1001.93
2022-10-28T10:11:19.773Z,1002.00
2022-10-28T10:16:19.818Z,1001.98
2022-10-28T10:21:19.710Z,1001.95
2022-10-28T10:26:19.623Z,1002.01
2022-10-28T10:31:19.590Z,1001.92
2022-10-28T10:36:19.561Z,1001.91
2022-10-28T10:41:19.457Z,1001.80
2022-10-28T10:46:19.379Z,1001.74
2022-10-28T10:51:19.390Z,1001.75
2022-10-28T10:56:19.331Z,1001.74
2022-10-28T11:01:19.338Z,1001.66
2022-10-28T11:06:23.483Z,1001.60
2022-10-28T11:11:20.183Z,1001.48
2022-10-28T11:16:19.115Z,1001.46
2022-10-28T11:21:19.093Z,1001.50
2022-10-28T11:26:18.972Z,1001.48
2022-10-28T11:31:18.962Z,1001.42
2022-10-28T11:36:18.888Z,1001.30
2022-10-28T11:41:18.837Z,1001.20
2022-10-28T11:46:18.760Z,1001.14
2022-10-28T11:51:18.710Z,1001.25
2022-10-28T11:56:18.726Z,1001.13
2022-10-28T12:01:18.683Z,1001.10
2022-10-28T12:06:18.573Z,1001.12
2022-10-28T12:11:18.515Z,1001.00
2022-10-28T12:16:18.490Z,1001.06
2022-10-28T12:21:18.534Z,1001.00
2022-10-28T12:26:18.351Z,1000.98
2022-10-28T12:31:18.318Z,1000.88
2022-10-28T12:36:18.298Z,1000.80
2022-10-28T12:41:18.284Z,1000.78
2022-10-28T12:46:18.117Z,1000.77
2022-10-28T12:51:18.089Z,1000.73
2022-10-28T12:56:18.131Z,1000.70
2022-10-28T13:01:18.071Z,1000.71
2022-10-28T13:06:17.997Z,1000.73
2022-10-28T13:11:17.905Z,1000.69
2022-10-28T13:16:17.832Z,1000.75
2022-10-28T13:21:18.809Z,1000.75
2022-10-28T13:26:17.751Z,1000.72
2022-10-28T13:31:17.701Z,1000.97
2022-10-28T13:36:27.461Z,1000.97
2022-10-28T13:41:17.544Z,1001.03
2022-10-28T13:46:17.533Z,1001.09
2022-10-28T13:51:17.464Z,1001.13
2022-10-28T13:56:17.399Z,1001.23
2022-10-28T14:01:17.360Z,1001.28
2022-10-28T14:06:17.340Z,1001.25
2022-10-28T14:11:17.218Z,1001.24
2022-10-28T14:16:17.221Z,1001.24
2022-10-28T14:21:17.111Z,1001.37
2022-10-28T14:26:17.064Z,1001.36
2022-10-28T14:31:18.004Z,1001.44
2022-10-28T14:36:16.952Z,1001.59
2022-10-28T14:41:16.889Z,1001.62
2022-10-28T14:46:16.973Z,1001.73
2022-10-28T14:51:16.811Z,1001.77
2022-10-28T14:56:16.814Z,1001.83
2022-10-28T15:01:16.826Z,1001.92
2022-10-28T15:06:16.671Z,1002.01
2022-10-28T15:11:16.573Z,1001.97
2022-10-28T15:16:16.521Z,1001.94
2022-10-28T15:21:16.446Z,1002.08
2022-10-28T15:26:16.403Z,1002.17
2022-10-28T15:31:16.392Z,1002.22
2022-10-28T15:36:18.354Z,1002.25
2022-10-28T15:41:16.241Z,1002.39
2022-10-28T15:46:16.204Z,1002.47
2022-10-28T15:51:16.155Z,1002.47
2022-10-28T15:56:16.093Z,1002.60
2022-10-28T16:01:16.200Z,1002.57
2022-10-28T16:06:15.955Z,1002.59
2022-10-28T16:11:15.910Z,1002.61
2022-10-28T16:16:15.863Z,1002.63
2022-10-28T16:21:15.919Z,1002.76
2022-10-28T16:26:15.853Z,1002.74
2022-10-28T16:31:15.756Z,1002.90
2022-10-28T16:36:15.688Z,1002.97
2022-10-28T16:41:15.631Z,1003.02
2022-10-28T16:46:15.574Z,1003.07
2022-10-28T16:51:15.488Z,1003.13
2022-10-28T16:56:16.487Z,1003.22
2022-10-28T17:01:15.511Z,1003.10
2022-10-28T17:06:15.336Z,1003.19
2022-10-28T17:11:15.258Z,1003.19
2022-10-28T17:16:15.326Z,1003.19
2022-10-28T17:21:15.174Z,1003.32
2022-10-28T17:26:15.149Z,1003.36
2022-10-28T17:31:15.923Z,1003.41
2022-10-28T17:36:14.982Z,1003.60
2022-10-28T17:41:14.957Z,1003.64
2022-10-28T17:46:14.903Z,1003.58
2022-10-28T17:51:14.825Z,1003.62
2022-10-28T17:56:14.868Z,1003.66
2022-10-28T18:01:14.809Z,1003.75
2022-10-28T18:06:14.662Z,1003.75
2022-10-28T18:11:14.620Z,1003.74
2022-10-28T18:16:14.573Z,1003.76
2022-10-28T18:21:14.570Z,1003.80
2022-10-28T18:26:14.457Z,1003.79
2022-10-28T18:31:14.487Z,1003.86
2022-10-28T18:36:14.423Z,1004.02
2022-10-28T18:41:14.340Z,1004.05
2022-10-28T18:46:14.273Z,1004.11
2022-10-28T18:51:14.214Z,1004.14
2022-10-28T18:56:14.245Z,1004.08
2022-10-28T19:01:14.291Z,1004.15
2022-10-28T19:06:14.008Z,1004.32
2022-10-28T19:11:13.958Z,1004.41
2022-10-28T19:16:13.975Z,1004.35
2022-10-28T19:21:13.854Z,1004.37
2022-10-28T19:26:13.795Z,1004.44
2022-10-28T19:31:14.838Z,1004.45
2022-10-28T19:36:15.765Z,1004.46
2022-10-28T19:41:13.722Z,1004.48
2022-10-28T19:46:23.859Z,1004.48
2022-10-28T19:51:14.107Z,1004.54
2022-10-28T20:01:13.915Z,1004.75
2022-10-28T20:06:14.523Z,1004.82
2022-10-28T20:11:14.082Z,1004.85
2022-10-28T20:16:13.366Z,1004.82
2022-10-28T20:21:13.259Z,1004.89
2022-10-28T20:26:16.010Z,1004.85
2022-10-28T20:31:13.890Z,1005.01
2022-10-28T20:36:16.130Z,1005.02
2022-10-28T20:41:13.385Z,1005.04
2022-10-28T20:46:19.837Z,1005.01
2022-10-28T20:51:14.026Z,1005.10
2022-10-28T20:56:12.897Z,1005.08
2022-10-28T21:01:12.998Z,1005.14
2022-10-28T21:11:13.702Z,1005.31
2022-10-28T21:16:12.592Z,1005.38
2022-10-28T21:21:15.948Z,1005.42
2022-10-28T21:26:12.679Z,1005.37
2022-10-28T21:31:13.515Z,1005.41
2022-10-28T21:36:12.627Z,1005.45
2022-10-28T21:41:17.872Z,1005.54
2022-10-28T21:46:12.273Z,1005.56
2022-10-28T21:51:14.684Z,1005.51
2022-10-28T21:56:16.548Z,1005.48
2022-10-28T22:01:13.266Z,1005.47
2022-10-28T22:06:15.493Z,1005.52
2022-10-28T22:11:12.071Z,1005.44
2022-10-28T22:16:13.640Z,1005.52
2022-10-28T22:21:12.072Z,1005.56
2022-10-28T22:26:12.301Z,1005.57
2022-10-28T22:31:14.343Z,1005.58
2022-10-28T22:36:14.766Z,1005.50
2022-10-28T22:41:13.431Z,1005.58
2022-10-28T22:46:19.916Z,1005.56
2022-10-28T22:51:12.860Z,1005.51
2022-10-28T22:56:11.920Z,1005.51
2022-10-28T23:01:11.755Z,1005.59
2022-10-28T23:06:11.392Z,1005.56
2022-10-28T23:11:11.334Z,1005.48
2022-10-28T23:16:13.452Z,1005.47
2022-10-28T23:21:15.765Z,1005.55
2022-10-28T23:26:12.890Z,1005.60
2022-10-28T23:31:12.442Z,1005.59
2022-10-28T23:36:15.464Z,1005.54
2022-10-28T23:41:10.989Z,1005.56
2022-10-28T23:46:12.512Z,1005.65
2022-10-28T23:51:10.992Z,1005.76
2022-10-28T23:56:11.714Z,1005.81
